Miedwie — C6XP5 — position and weather

sailwx.info

Track history (hours):
 
Tides and Currents Weather Stations Pressure Air Temp Water Temp Dewpoint Dewpoint Depression Visibility Wind Speed Wind Dir Waves Ship Positions

Miedwie

Last reported at 2016-Oct-01 15:31 UTC. Time now 2016-Oct-01 18:56 UTC.
Position N 54°24' E 018°41'.

Length 190 m; draft 6.2 m.

Type: Cargo ship. MMSI: 311018300.

Date/timePositionNaut miles runAvg speedWind from/ knotsBaromVisibWave heightAir tempDewpointWater temp
2016-Oct-01 15:31N 54°24' E 018°41'0 0.0
2016-Oct-01 14:31N 54°24' E 018°41'0 0.0
2016-Oct-01 13:31N 54°24' E 018°41'0 0.0
2016-Oct-01 04:31N 54°24' E 018°41'0 0.0
2016-Oct-01 03:31N 54°24' E 018°41'0 0.0
2016-Oct-01 00:31N 54°24' E 018°41'0 0.0
2016-Sep-30 22:31N 54°24' E 018°41'0 0.0
2016-Sep-30 20:31N 54°24' E 018°41'0 0.0
2016-Sep-30 17:31N 54°24' E 018°41'0 0.0
2016-Sep-30 16:31N 54°24' E 018°41'0 0.0
2016-Sep-30 14:31N 54°24' E 018°41'0 0.0
2016-Sep-30 13:31N 54°24' E 018°41'0 0.0
2016-Sep-30 10:34N 54°24' E 018°41'4 1.9
2016-Sep-30 08:31N 54°28' E 018°41'0 0.0
2016-Sep-30 06:32N 54°28' E 018°41'0 0.0
2016-Sep-30 03:31N 54°28' E 018°41'0 0.0
2016-Sep-30 02:31N 54°28' E 018°41'0 0.0
2016-Sep-29 23:31N 54°28' E 018°41'0 0.0
2016-Sep-29 21:31N 54°28' E 018°41'0 0.0
2016-Sep-29 20:31N 54°28' E 018°41'0 0.0
2016-Sep-29 19:31N 54°28' E 018°41'0 0.0
2016-Sep-29 16:31N 54°28' E 018°41'4 3.9
2016-Sep-29 15:33N 54°31' E 018°45'1111.2
2016-Sep-29 14:33N 54°40' E 018°56'1110.6
2016-Sep-29 13:33N 54°50' E 018°53'15912.1
2016-Sep-29 00:26N 54°06' E 014°30'21 7.4
2016-Sep-28 21:33N 53°45' E 014°25'  
2016-Sep-25 04:26N 54°40' E 013°39'32 8.3
2016-Sep-25 00:34N 54°45' E 012°44'19 9.4
2016-Sep-24 22:33N 54°34' E 012°17'1111.1
2016-Sep-24 21:34N 54°24' E 012°09'2210.9
2016-Sep-24 19:33N 54°29' E 011°32'1111.4
2016-Sep-24 18:33N 54°34' E 011°15'1111.2
2016-Sep-24 17:34N 54°40' E 010°58'10 9.8
2016-Sep-24 16:33N 54°49' E 010°52'2210.8
2016-Sep-24 14:33N 55°10' E 011°03'11110.1
2016-Sep-24 03:34N 56°58' E 011°44'1111.3
2016-Sep-24 02:33N 57°08' E 011°36'1211.9
2016-Sep-24 01:33N 57°20' E 011°30'1111.5
2016-Sep-24 00:33N 57°30' E 011°19'25710.3
2016-Sep-22 23:33N 54°39' E 005°36'3711.9
2016-Sep-22 20:27N 54°06' E 005°08'18011.3
2016-Sep-22 04:33N 51°36' E 002°23'1313.3
2016-Sep-22 03:33N 51°24' E 002°11'3712.4
2016-Sep-22 00:33N 50°58' E 001°30'1110.5
2016-Sep-21 23:33N 50°48' E 001°24'1010.1
2016-Sep-21 22:31N 50°39' E 001°16'33 9.7
2016-Sep-21 19:04N 50°25' E 000°29'25 9.8
2016-Sep-21 16:33N 50°18' W 000°09'  
Track history (hours):
 
Tides and Currents Weather Stations Pressure Air Temp Water Temp Dewpoint Dewpoint Depression Visibility Wind Speed Wind Dir Waves Ship Positions

Miedwie

Last reported at 2016-Oct-01 15:31 UTC. Time now 2016-Oct-01 18:56 UTC.
Position N 54°24' E 018°41'.

Length 190 m; draft 6.2 m.

Type: Cargo ship. MMSI: 311018300.

Date/timePositionNaut miles runAvg speedWind from/ knotsBaromVisibWave heightAir tempDewpointWater temp
2016-Oct-01 15:31N 54°24' E 018°41'0 0.0
2016-Oct-01 14:31N 54°24' E 018°41'0 0.0
2016-Oct-01 13:31N 54°24' E 018°41'0 0.0
2016-Oct-01 04:31N 54°24' E 018°41'0 0.0
2016-Oct-01 03:31N 54°24' E 018°41'0 0.0
2016-Oct-01 00:31N 54°24' E 018°41'0 0.0
2016-Sep-30 22:31N 54°24' E 018°41'0 0.0
2016-Sep-30 20:31N 54°24' E 018°41'0 0.0
2016-Sep-30 17:31N 54°24' E 018°41'0 0.0
2016-Sep-30 16:31N 54°24' E 018°41'0 0.0
2016-Sep-30 14:31N 54°24' E 018°41'0 0.0
2016-Sep-30 13:31N 54°24' E 018°41'0 0.0
2016-Sep-30 10:34N 54°24' E 018°41'4 1.9
2016-Sep-30 08:31N 54°28' E 018°41'0 0.0
2016-Sep-30 06:32N 54°28' E 018°41'0 0.0
2016-Sep-30 03:31N 54°28' E 018°41'0 0.0
2016-Sep-30 02:31N 54°28' E 018°41'0 0.0
2016-Sep-29 23:31N 54°28' E 018°41'0 0.0
2016-Sep-29 21:31N 54°28' E 018°41'0 0.0
2016-Sep-29 20:31N 54°28' E 018°41'0 0.0
2016-Sep-29 19:31N 54°28' E 018°41'0 0.0
2016-Sep-29 16:31N 54°28' E 018°41'4 3.9
2016-Sep-29 15:33N 54°31' E 018°45'1111.2
2016-Sep-29 14:33N 54°40' E 018°56'1110.6
2016-Sep-29 13:33N 54°50' E 018°53'15912.1
2016-Sep-29 00:26N 54°06' E 014°30'21 7.4
2016-Sep-28 21:33N 53°45' E 014°25'  
2016-Sep-25 04:26N 54°40' E 013°39'32 8.3
2016-Sep-25 00:34N 54°45' E 012°44'19 9.4
2016-Sep-24 22:33N 54°34' E 012°17'1111.1
2016-Sep-24 21:34N 54°24' E 012°09'2210.9
2016-Sep-24 19:33N 54°29' E 011°32'1111.4
2016-Sep-24 18:33N 54°34' E 011°15'1111.2
2016-Sep-24 17:34N 54°40' E 010°58'10 9.8
2016-Sep-24 16:33N 54°49' E 010°52'2210.8
2016-Sep-24 14:33N 55°10' E 011°03'11110.1
2016-Sep-24 03:34N 56°58' E 011°44'1111.3
2016-Sep-24 02:33N 57°08' E 011°36'1211.9
2016-Sep-24 01:33N 57°20' E 011°30'1111.5
2016-Sep-24 00:33N 57°30' E 011°19'25710.3
2016-Sep-22 23:33N 54°39' E 005°36'3711.9
2016-Sep-22 20:27N 54°06' E 005°08'18011.3
2016-Sep-22 04:33N 51°36' E 002°23'1313.3
2016-Sep-22 03:33N 51°24' E 002°11'3712.4
2016-Sep-22 00:33N 50°58' E 001°30'1110.5
2016-Sep-21 23:33N 50°48' E 001°24'1010.1
2016-Sep-21 22:31N 50°39' E 001°16'33 9.7
2016-Sep-21 19:04N 50°25' E 000°29'25 9.8
2016-Sep-21 16:33N 50°18' W 000°09'  

Dump ship's entire track history